Time;durP1;ratioP1;P1;durP2;ratioP2;P2;SDS_P1;SDS_P2;PMS_P1;PMS_P2;Temp;Humidity;BMP_temperature;BMP_pressure;BME280_temperature;BME280_humidity;BME280_pressure;Samples;Min_cycle;Max_cycle;Signal;HPM_P1;HPM_P2
2022/11/17 00:01:19;;;;;;;5.82;2.50;;;;;;;11.29;100.00;98687.72;5258363;28;20021;-72
2022/11/17 00:03:51;;;;;;;8.75;2.70;;;;;;;11.16;100.00;98684.97;5258115;28;20389;-72
2022/11/17 00:06:22;;;;;;;6.38;2.78;;;;;;;11.17;100.00;98676.09;5257269;28;20032;-72
2022/11/17 00:08:54;;;;;;;6.65;2.75;;;;;;;11.19;100.00;98661.81;5258722;28;20032;-72
2022/11/17 00:11:25;;;;;;;4.95;3.00;;;;;;;11.18;100.00;98662.03;5257958;28;20040;-72
2022/11/17 00:16:48;;;;;;;8.63;2.63;;;;;;;11.29;100.00;98655.44;5257346;28;20036;-72
2022/11/17 00:22:10;;;;;;;5.70;2.38;;;;;;;11.22;100.00;98652.78;5257714;28;20052;-72
2022/11/17 00:24:41;;;;;;;6.78;2.53;;;;;;;11.24;100.00;98640.28;5257972;28;20017;-72
2022/11/17 00:27:12;;;;;;;6.60;2.38;;;;;;;11.30;100.00;98636.13;5257336;28;20108;-72
2022/11/17 00:29:43;;;;;;;6.43;2.80;;;;;;;11.29;100.00;98624.81;5257628;28;20029;-72
2022/11/17 00:35:07;;;;;;;6.18;2.60;;;;;;;11.29;100.00;98619.59;5258232;28;20041;-72
2022/11/17 00:38:14;;;;;;;6.63;2.13;;;;;;;11.32;100.00;98608.69;5256617;28;20025;-72
2022/11/17 00:40:33;;;;;;;6.80;2.65;;;;;;;11.30;100.00;98591.56;5256605;28;20051;-72
2022/11/17 00:43:04;;;;;;;6.25;2.13;;;;;;;11.28;100.00;98602.22;5257401;28;20020;-72
2022/11/17 00:45:36;;;;;;;4.40;2.22;;;;;;;11.26;100.00;98595.56;5256440;28;20021;-72
2022/11/17 00:48:07;;;;;;;6.00;2.40;;;;;;;11.24;100.00;98592.28;5256684;28;20857;-72
2022/11/17 00:50:38;;;;;;;6.07;2.17;;;;;;;11.29;100.00;98588.13;5258664;28;20025;-72
2022/11/17 00:53:09;;;;;;;5.03;2.03;;;;;;;11.32;100.00;98586.91;5257131;28;20037;-72
2022/11/17 00:55:41;;;;;;;8.10;2.63;;;;;;;11.28;100.00;98581.25;5257618;28;20048;-72
2022/11/17 00:58:12;;;;;;;3.28;2.00;;;;;;;11.32;100.00;98577.22;5256350;28;20060;-72
2022/11/17 01:00:44;;;;;;;6.55;2.33;;;;;;;11.34;100.00;98584.94;5256570;28;20052;-72
2022/11/17 01:03:15;;;;;;;3.90;2.00;;;;;;;11.33;100.00;98578.88;5257148;28;20033;-72
2022/11/17 01:05:46;;;;;;;5.90;1.90;;;;;;;11.39;100.00;98561.56;5257654;28;20155;-72
2022/11/17 01:08:17;;;;;;;3.05;1.90;;;;;;;11.38;100.00;98549.47;5257064;28;20044;-72
2022/11/17 01:10:49;;;;;;;4.47;2.08;;;;;;;11.38;100.00;98542.41;5256749;28;20079;-72
2022/11/17 01:13:20;;;;;;;3.22;1.45;;;;;;;11.41;100.00;98543.84;5256562;28;20024;-72
2022/11/17 01:15:51;;;;;;;2.72;1.40;;;;;;;11.42;100.00;98530.53;5257900;28;20033;-72
2022/11/17 01:18:22;;;;;;;2.75;1.50;;;;;;;11.44;100.00;98528.53;5256531;28;20021;-72
2022/11/17 01:20:54;;;;;;;3.80;1.67;;;;;;;11.52;100.00;98539.88;5256338;28;20021;-72
2022/11/17 01:23:25;;;;;;;2.80;1.20;;;;;;;11.57;100.00;98532.22;5257554;28;20025;-72
2022/11/17 01:26:04;;;;;;;4.40;1.20;;;;;;;11.68;100.00;98534.31;5256492;28;20020;-72
2022/11/17 01:28:36;;;;;;;2.63;1.15;;;;;;;11.59;100.00;98522.34;5256457;28;20496;-72
2022/11/17 01:31:14;;;;;;;3.10;1.17;;;;;;;11.76;100.00;98533.34;5256170;28;20033;-72
2022/11/17 01:33:46;;;;;;;3.25;1.10;;;;;;;11.66;100.00;98544.19;5257167;28;20044;-72
2022/11/17 01:37:17;;;;;;;3.20;1.33;;;;;;;11.81;100.00;98523.88;5256472;28;20421;-72
2022/11/17 01:39:30;;;;;;;2.22;1.33;;;;;;;11.79;100.00;98519.84;5256553;28;20129;-72
2022/11/17 01:42:04;;;;;;;2.83;1.50;;;;;;;11.75;100.00;98532.53;5256130;28;20477;-72
2022/11/17 01:44:43;;;;;;;3.67;1.50;;;;;;;11.78;100.00;98537.41;5256206;28;20028;-72
2022/11/17 01:47:44;;;;;;;3.75;1.30;;;;;;;11.91;100.00;98534.06;5255954;28;20021;-72
2022/11/17 01:50:30;;;;;;;3.63;1.40;;;;;;;11.78;100.00;98526.91;5255881;28;20037;-72
2022/11/17 01:53:07;;;;;;;3.38;1.77;;;;;;;11.75;100.00;98535.16;5255898;28;20021;-72
2022/11/17 01:56:02;;;;;;;2.78;1.27;;;;;;;11.88;100.00;98521.31;5255776;28;20029;-72
2022/11/17 01:58:37;;;;;;;2.13;1.35;;;;;;;11.70;100.00;98506.06;5257151;28;20057;-72
2022/11/17 02:01:08;;;;;;;4.55;1.50;;;;;;;11.72;100.00;98495.41;5255399;28;20505;-72
2022/11/17 02:03:43;;;;;;;4.28;1.63;;;;;;;11.69;100.00;98513.13;5255340;28;20037;-72
2022/11/17 02:06:36;;;;;;;4.07;1.40;;;;;;;11.75;100.00;98529.09;5256279;28;20394;-72
2022/11/17 02:09:07;;;;;;;4.15;1.65;;;;;;;11.77;100.00;98535.75;5254744;28;20049;-72
2022/11/17 02:11:39;;;;;;;3.42;1.13;;;;;;;11.76;100.00;98520.22;5239551;28;20039;-72
2022/11/17 02:14:10;;;;;;;3.05;1.13;;;;;;;11.77;100.00;98512.16;5260534;28;20025;-72
2022/11/17 02:16:42;;;;;;;2.17;1.10;;;;;;;11.79;100.00;98498.88;5260326;28;20040;-72
2022/11/17 02:19:15;;;;;;;3.40;1.20;;;;;;;11.82;100.00;98486.16;5260831;28;20083;-72
2022/11/17 02:22:26;;;;;;;2.22;0.98;;;;;;;12.08;100.00;98480.19;5260616;28;20508;-72
2022/11/17 02:25:17;;;;;;;2.75;1.20;;;;;;;11.89;100.00;98475.69;5245920;28;20460;-72
2022/11/17 02:27:48;;;;;;;2.58;1.20;;;;;;;11.83;100.00;98461.56;5260752;28;20021;-72
2022/11/17 02:30:21;;;;;;;2.23;1.03;;;;;;;11.87;100.00;98457.53;5260689;28;20036;-72
2022/11/17 02:32:58;;;;;;;3.80;1.25;;;;;;;11.89;100.00;98459.97;5260739;28;20111;-72
2022/11/17 02:35:48;;;;;;;2.75;0.65;;;;;;;12.03;100.00;98445.06;5241959;28;20039;-72
2022/11/17 02:38:48;;;;;;;1.70;0.68;;;;;;;11.92;100.00;98435.97;5259612;28;20040;-72
2022/11/17 02:41:29;;;;;;;2.10;0.68;;;;;;;11.98;100.00;98429.13;5260216;22;20050;-80
2022/11/17 02:44:11;;;;;;;1.80;0.60;;;;;;;11.98;100.00;98437.00;5207720;28;20048;-80
2022/11/17 02:46:49;;;;;;;1.90;0.70;;;;;;;11.93;100.00;98424.44;5207066;28;20046;-79
2022/11/17 02:49:25;;;;;;;1.80;0.50;;;;;;;11.91;100.00;98423.84;5202235;28;20026;-76
2022/11/17 02:51:58;;;;;;;1.90;0.68;;;;;;;11.85;100.00;98414.13;5204886;28;20022;-77
2022/11/17 02:54:31;;;;;;;2.00;0.63;;;;;;;11.86;100.00;98397.41;5202712;28;20038;-79
2022/11/17 02:57:02;;;;;;;3.17;0.70;;;;;;;11.81;100.00;98402.41;5200529;28;20026;-80
2022/11/17 02:59:41;;;;;;;2.42;0.80;;;;;;;11.87;100.00;98410.31;5196943;28;20273;-79
2022/11/17 03:02:21;;;;;;;2.90;0.60;;;;;;;11.87;100.00;98418.19;5194593;28;20042;-77
2022/11/17 03:05:14;;;;;;;2.80;0.60;;;;;;;12.00;100.00;98411.34;5205194;28;20026;-77
2022/11/17 03:08:16;;;;;;;2.03;0.88;;;;;;;12.13;100.00;98403.53;5200049;28;20026;-78
2022/11/17 03:11:01;;;;;;;2.13;1.05;;;;;;;12.02;100.00;98398.84;5200507;28;20480;-78
2022/11/17 03:13:52;;;;;;;1.33;0.50;;;;;;;11.84;100.00;98389.72;5200673;28;20041;-78
2022/11/17 03:16:38;;;;;;;1.58;0.50;;;;;;;11.97;100.00;98382.88;5204658;28;20113;-77
2022/11/17 03:19:31;;;;;;;2.33;0.50;;;;;;;12.03;100.00;98388.16;5211661;28;20125;-77
2022/11/17 03:22:23;;;;;;;2.00;0.80;;;;;;;11.96;100.00;98383.91;5209502;28;20025;-77
2022/11/17 03:25:00;;;;;;;3.38;1.00;;;;;;;11.75;100.00;98384.84;5205503;28;21036;-77
2022/11/17 03:27:39;;;;;;;1.45;0.60;;;;;;;11.82;100.00;98372.53;5198127;28;20082;-79
2022/11/17 03:30:11;;;;;;;1.35;0.60;;;;;;;11.71;100.00;98360.81;5204763;28;20049;-77
2022/11/17 03:32:50;;;;;;;1.48;0.50;;;;;;;11.75;100.00;98354.16;5198909;28;20034;-77
2022/11/17 03:35:30;;;;;;;1.67;0.45;;;;;;;11.79;100.00;98354.59;5199440;28;20022;-77
2022/11/17 03:38:11;;;;;;;1.25;0.60;;;;;;;11.79;100.00;98360.63;5202639;28;20434;-78
2022/11/17 03:40:45;;;;;;;2.00;0.50;;;;;;;11.72;100.00;98353.75;5198240;28;20029;-76
2022/11/17 03:43:19;;;;;;;0.88;0.40;;;;;;;11.67;100.00;98352.53;5201926;28;20050;-77
2022/11/17 03:45:54;;;;;;;2.53;0.60;;;;;;;11.74;100.00;98343.84;5202213;28;20038;-77
2022/11/17 03:48:36;;;;;;;2.40;0.60;;;;;;;11.83;100.00;98334.81;5201369;28;20483;-78
2022/11/17 03:51:20;;;;;;;1.45;0.55;;;;;;;11.80;100.00;98341.25;5203825;28;20061;-77
2022/11/17 03:53:52;;;;;;;;;;;;;;;12.22;100.00;98341.94;5205161;28;20033;-76
2022/11/17 03:56:36;;;;;;;1.02;0.50;;;;;;;11.98;100.00;98343.34;5201602;28;19913;-78
2022/11/17 03:59:13;;;;;;;1.92;0.40;;;;;;;11.88;100.00;98338.47;5204883;28;20429;-77
2022/11/17 04:01:44;;;;;;;1.67;0.50;;;;;;;11.85;100.00;98333.63;5199817;28;20033;-77
2022/11/17 04:04:18;;;;;;;1.80;0.50;;;;;;;11.93;100.00;98322.97;5199323;28;20026;-77
2022/11/17 04:06:51;;;;;;;1.35;0.50;;;;;;;11.95;100.00;98314.88;5200696;28;20049;-78
2022/11/17 04:09:23;;;;;;;1.95;0.52;;;;;;;11.92;100.00;98321.31;5201976;28;21080;-77
2022/11/17 04:17:34;;;;;;;2.30;0.60;;;;;;;11.99;100.00;98320.53;5197780;28;20097;-77
2022/11/17 04:20:06;;;;;;;3.72;0.80;;;;;;;11.99;100.00;98323.16;5197596;28;20046;-77
2022/11/17 04:22:38;;;;;;;2.38;0.57;;;;;;;12.03;100.00;98319.13;5196676;28;20387;-77
2022/11/17 04:28:35;;;;;;;2.55;0.90;;;;;;;11.99;100.00;98321.34;5205564;28;20032;-77
2022/11/17 04:30:50;;;;;;;2.40;0.52;;;;;;;11.97;100.00;98348.78;5200672;28;20038;-77
2022/11/17 04:33:21;;;;;;;2.38;0.80;;;;;;;11.91;100.00;98329.41;5203764;28;20026;-79
2022/11/17 04:35:53;;;;;;;2.17;0.60;;;;;;;11.77;100.00;98319.84;5213487;28;20042;-77
2022/11/17 04:38:24;;;;;;;2.85;0.80;;;;;;;11.86;100.00;98316.88;5210017;28;20025;-80
2022/11/17 04:43:54;;;;;;;1.63;0.80;;;;;;;11.79;100.00;98281.13;5212898;28;20081;-77
2022/11/17 04:46:27;;;;;;;3.08;1.00;;;;;;;11.76;100.00;98295.44;5215372;28;20053;-77
2022/11/17 04:48:59;;;;;;;2.60;0.75;;;;;;;11.78;100.00;98290.00;5197614;28;20029;-79
2022/11/17 04:51:32;;;;;;;3.60;0.85;;;;;;;11.74;100.00;98276.47;5215270;28;20053;-77
2022/11/17 04:54:06;;;;;;;3.90;0.93;;;;;;;11.76;100.00;98279.72;5214532;28;20092;-78
2022/11/17 04:56:37;;;;;;;2.92;0.90;;;;;;;11.68;100.00;98272.03;5215402;28;20022;-78
2022/11/17 04:59:09;;;;;;;4.20;0.90;;;;;;;11.72;100.00;98278.50;5215426;28;20040;-79
2022/11/17 05:01:41;;;;;;;2.40;0.80;;;;;;;11.66;100.00;98272.22;5213395;28;20109;-77
2022/11/17 05:04:54;;;;;;;3.22;0.82;;;;;;;11.69;100.00;98274.44;5215191;28;20026;-80
2022/11/17 05:07:07;;;;;;;3.90;1.00;;;;;;;11.66;100.00;98279.28;5213233;28;20036;-77
2022/11/17 05:09:38;;;;;;;5.00;1.15;;;;;;;11.71;100.00;98282.13;5214500;28;20033;-80
2022/11/17 05:14:59;;;;;;;2.63;0.77;;;;;;;11.79;100.00;98291.63;5214350;28;20037;-79
2022/11/17 05:17:31;;;;;;;6.32;1.05;;;;;;;11.80;100.00;98311.59;5214011;28;20026;-77
2022/11/17 05:20:02;;;;;;;4.72;1.58;;;;;;;11.81;100.00;98331.56;5214371;28;20033;-77
2022/11/17 05:25:23;;;;;;;3.38;0.98;;;;;;;11.79;100.00;98317.84;5213648;28;20425;-77
2022/11/17 05:27:55;;;;;;;4.00;0.93;;;;;;;11.74;100.00;98315.81;5214039;28;20026;-78
2022/11/17 05:30:26;;;;;;;4.38;1.10;;;;;;;11.80;100.00;98317.66;5213333;28;20036;-78
2022/11/17 05:32:57;;;;;;;3.75;1.00;;;;;;;11.74;100.00;98315.81;5214993;28;20368;-76
2022/11/17 05:35:29;;;;;;;5.95;1.52;;;;;;;11.82;100.00;98320.06;5213804;28;20030;-76
2022/11/17 05:38:00;;;;;;;4.43;0.98;;;;;;;11.85;100.00;98327.56;5214366;28;20034;-76
2022/11/17 05:40:31;;;;;;;7.10;1.40;;;;;;;11.81;100.00;98329.75;5213386;28;20036;-78
2022/11/17 05:43:02;;;;;;;5.90;1.40;;;;;;;11.82;100.00;98331.38;5204774;28;20057;-77
2022/11/17 05:45:34;;;;;;;5.90;1.17;;;;;;;11.78;100.00;98338.03;5199311;28;20045;-79
2022/11/17 05:48:05;;;;;;;4.80;1.27;;;;;;;11.81;100.00;98337.63;5198319;28;20072;-77
2022/11/17 05:50:36;;;;;;;6.13;1.42;;;;;;;11.81;100.00;98331.56;5199988;28;20038;-78
2022/11/17 05:53:08;;;;;;;6.57;1.33;;;;;;;11.81;100.00;98329.75;5197468;28;20286;-78
2022/11/17 05:55:39;;;;;;;5.78;1.40;;;;;;;11.84;100.00;98337.25;5201161;28;20038;-79
2022/11/17 05:58:17;;;;;;;4.97;1.30;;;;;;;11.80;100.00;98328.13;5200223;28;20081;-80
2022/11/17 06:00:51;;;;;;;5.10;1.33;;;;;;;11.80;100.00;98350.94;5205292;28;20045;-79
2022/11/17 06:03:25;;;;;;;;;;;;;;;12.35;100.00;98351.63;5202473;28;20061;-79
2022/11/17 06:05:56;;;;;;;;;;;;;;;12.39;100.00;98344.97;5204140;28;19920;-79
2022/11/17 06:08:28;;;;;;;6.72;1.63;;;;;;;11.88;100.00;98353.41;5229548;28;19913;-79
2022/11/17 06:10:59;;;;;;;5.82;1.50;;;;;;;11.82;100.00;98347.13;5200783;28;20044;-78
2022/11/17 06:13:30;;;;;;;7.68;2.30;;;;;;;11.85;100.00;98356.44;5207367;28;20022;-79
2022/11/17 06:16:05;;;;;;;8.05;1.67;;;;;;;11.86;100.00;98358.88;5206894;28;20030;-80
2022/11/17 06:18:51;;;;;;;7.60;2.08;;;;;;;11.79;100.00;98358.00;5204048;28;20038;-79
2022/11/17 06:21:23;;;;;;;4.97;1.40;;;;;;;11.87;100.00;98362.28;5199117;28;20506;-78
2022/11/17 06:23:54;;;;;;;6.50;1.80;;;;;;;11.84;100.00;98363.50;5199842;28;20038;-80
2022/11/17 06:26:25;;;;;;;4.40;1.55;;;;;;;11.79;100.00;98371.13;5198050;28;20065;-79
2022/11/17 06:28:57;;;;;;;6.45;1.45;;;;;;;11.78;100.00;98373.94;5201689;28;20042;-79
2022/11/17 06:31:29;;;;;;;4.85;1.30;;;;;;;11.77;100.00;98374.94;5205415;28;20018;-79
2022/11/17 06:34:01;;;;;;;3.63;0.95;;;;;;;11.76;100.00;98387.25;5201484;28;20509;-78
2022/11/17 06:36:32;;;;;;;7.30;1.30;;;;;;;11.69;100.00;98397.72;5201455;28;20031;-78
2022/11/17 06:39:04;;;;;;;5.15;1.52;;;;;;;11.62;100.00;98382.97;5201193;28;20034;-79
2022/11/17 06:41:35;;;;;;;4.28;1.25;;;;;;;11.58;100.00;98392.25;5201000;28;20046;-78
2022/11/17 06:44:06;;;;;;;4.60;1.27;;;;;;;11.56;100.00;98392.44;5198839;28;20038;-78
2022/11/17 06:46:38;;;;;;;5.13;1.30;;;;;;;11.52;100.00;98391.22;5200308;28;20078;-81
2022/11/17 06:49:09;;;;;;;3.38;0.98;;;;;;;11.53;100.00;98392.84;5207247;28;20033;-78
2022/11/17 06:51:40;;;;;;;5.15;1.13;;;;;;;11.55;100.00;98405.72;5202518;28;20383;-77
2022/11/17 06:54:13;;;;;;;3.97;0.85;;;;;;;11.58;100.00;98402.72;5204362;28;20483;-78
2022/11/17 06:56:44;;;;;;;5.40;0.95;;;;;;;11.61;100.00;98404.97;5205335;28;20018;-78
2022/11/17 06:59:16;;;;;;;5.30;1.25;;;;;;;11.46;100.00;98405.09;5207486;28;20041;-78
2022/11/17 07:01:47;;;;;;;6.55;1.50;;;;;;;11.50;100.00;98405.53;5213602;28;20379;-78
2022/11/17 07:04:18;;;;;;;5.57;1.20;;;;;;;11.51;100.00;98409.75;5202806;28;20372;-78
2022/11/17 07:06:50;;;;;;;5.72;1.02;;;;;;;11.34;100.00;98411.91;5205743;28;20469;-78
2022/11/17 07:09:21;;;;;;;4.20;0.85;;;;;;;11.32;100.00;98411.28;5205188;28;20080;-78
2022/11/17 07:11:52;;;;;;;4.32;0.82;;;;;;;11.36;100.00;98412.50;5203814;28;20022;-78
2022/11/17 07:14:23;;;;;;;5.32;1.40;;;;;;;11.35;100.00;98411.72;5210452;28;20022;-78
2022/11/17 07:16:55;;;;;;;5.20;0.93;;;;;;;11.24;100.00;98416.69;5207792;28;20038;-78
2022/11/17 07:19:26;;;;;;;6.13;1.10;;;;;;;11.24;100.00;98424.56;5207725;28;20069;-81
2022/11/17 07:21:57;;;;;;;3.22;0.77;;;;;;;11.28;100.00;98426.59;5207187;28;20033;-78
2022/11/17 07:24:28;;;;;;;5.70;0.98;;;;;;;11.19;100.00;98412.03;5204041;28;20029;-78
2022/11/17 07:27:00;;;;;;;5.63;0.93;;;;;;;11.27;100.00;98434.66;5202818;28;20402;-78
2022/11/17 07:29:31;;;;;;;4.35;0.98;;;;;;;11.24;100.00;98437.66;5205559;28;20026;-78
2022/11/17 07:32:03;;;;;;;4.90;1.20;;;;;;;11.16;100.00;98436.00;5204019;28;20061;-78
2022/11/17 07:34:34;;;;;;;4.68;0.73;;;;;;;11.17;100.00;98441.06;5204244;28;20034;-78
2022/11/17 07:37:06;;;;;;;4.88;0.93;;;;;;;11.14;100.00;98430.97;5203710;28;20022;-78
2022/11/17 07:39:37;;;;;;;4.38;1.27;;;;;;;11.15;100.00;98440.44;5208990;28;20030;-79
2022/11/17 07:42:08;;;;;;;3.53;0.90;;;;;;;11.12;100.00;98443.44;5208134;28;20431;-78
2022/11/17 07:44:40;;;;;;;4.68;1.02;;;;;;;11.16;100.00;98446.50;5211640;28;20424;-82
2022/11/17 07:47:11;;;;;;;2.70;0.95;;;;;;;11.12;100.00;98446.06;5206469;28;20037;-77
2022/11/17 07:49:42;;;;;;;4.75;0.80;;;;;;;11.08;100.00;98449.25;5203127;28;20101;-78
2022/11/17 07:52:14;;;;;;;5.70;1.17;;;;;;;11.07;100.00;98455.50;5203181;28;20125;-78
2022/11/17 07:54:45;;;;;;;3.40;0.90;;;;;;;11.08;100.00;98465.78;5206602;28;20021;-78
2022/11/17 07:57:16;;;;;;;3.78;0.70;;;;;;;11.06;100.00;98456.50;5205195;28;20034;-78
2022/11/17 07:59:47;;;;;;;5.28;1.10;;;;;;;11.02;100.00;98456.06;5212016;28;20113;-78
2022/11/17 08:02:19;;;;;;;4.20;1.00;;;;;;;11.11;100.00;98473.28;5202529;28;20085;-79
2022/11/17 08:04:50;;;;;;;5.40;1.40;;;;;;;11.06;100.00;98473.06;5198418;28;20022;-79
2022/11/17 08:07:21;;;;;;;4.10;1.02;;;;;;;11.09;100.00;98475.25;5199559;28;20030;-78
2022/11/17 08:09:52;;;;;;;3.50;1.15;;;;;;;11.13;100.00;98473.06;5195236;28;20038;-80
2022/11/17 08:12:24;;;;;;;4.72;0.80;;;;;;;11.11;100.00;98486.38;5205751;28;20073;-78
2022/11/17 08:14:55;;;;;;;2.28;0.73;;;;;;;11.06;100.00;98477.44;5205025;28;20034;-78
2022/11/17 08:17:28;;;;;;;4.35;0.90;;;;;;;11.06;100.00;98486.16;5203846;28;20030;-78
2022/11/17 08:19:59;;;;;;;4.35;0.95;;;;;;;11.07;100.00;98489.56;5204763;28;20030;-79
2022/11/17 08:22:30;;;;;;;5.28;0.80;;;;;;;11.05;100.00;98500.22;5202323;28;20435;-78
2022/11/17 08:25:02;;;;;;;3.22;0.75;;;;;;;11.14;100.00;98500.91;5203367;28;20128;-78
2022/11/17 08:27:33;;;;;;;3.17;0.90;;;;;;;11.05;100.00;98502.03;5199949;28;20104;-79
2022/11/17 08:30:06;;;;;;;2.70;0.80;;;;;;;10.98;100.00;98502.00;5203845;28;20022;-79
2022/11/17 08:32:37;;;;;;;3.58;0.80;;;;;;;11.04;100.00;98498.63;5199015;28;20036;-78
2022/11/17 08:35:10;;;;;;;3.80;1.00;;;;;;;11.03;100.00;98498.81;5199181;28;20073;-78
2022/11/17 08:37:42;;;;;;;4.07;0.70;;;;;;;10.99;100.00;98505.44;5234738;28;20297;-78
2022/11/17 08:40:14;;;;;;;4.47;0.80;;;;;;;10.95;100.00;98508.44;5204374;28;20029;-78
2022/11/17 08:42:46;;;;;;;5.88;0.98;;;;;;;11.00;100.00;98515.72;5295030;23;20492;-72
2022/11/17 08:45:17;;;;;;;3.90;0.98;;;;;;;11.00;100.00;98520.16;5292532;28;20040;-71
2022/11/17 08:47:48;;;;;;;4.65;1.08;;;;;;;10.91;100.00;98509.81;5298575;28;20027;-70
2022/11/17 08:50:20;;;;;;;2.20;0.80;;;;;;;10.98;100.00;98522.13;5298881;28;20449;-71
2022/11/17 08:52:52;;;;;;;3.63;0.90;;;;;;;11.00;100.00;98523.56;5288718;28;20028;-71
2022/11/17 08:55:24;;;;;;;3.80;0.90;;;;;;;10.97;100.00;98513.47;5286385;28;20214;-70
2022/11/17 08:57:56;;;;;;;5.70;0.93;;;;;;;10.99;100.00;98527.22;5281030;28;20799;-71
2022/11/17 09:00:27;;;;;;;4.93;1.00;;;;;;;11.00;100.00;98534.06;5267423;28;20107;-70
2022/11/17 09:02:58;;;;;;;3.88;1.52;;;;;;;11.01;100.00;98534.88;5287765;28;20024;-73
2022/11/17 09:05:30;;;;;;;2.33;0.68;;;;;;;11.03;100.00;98530.25;5283371;28;20035;-70
2022/11/17 09:08:01;;;;;;;4.13;1.02;;;;;;;10.94;100.00;98538.22;5287163;28;20061;-70
2022/11/17 09:10:32;;;;;;;3.67;0.88;;;;;;;10.98;100.00;98545.72;5291483;28;20027;-70
2022/11/17 09:13:04;;;;;;;3.63;1.20;;;;;;;10.98;100.00;98543.91;5285525;28;20036;-70
2022/11/17 09:15:35;;;;;;;3.45;0.80;;;;;;;11.00;100.00;98543.72;5286631;28;20088;-71
2022/11/17 09:18:06;;;;;;;4.45;0.77;;;;;;;10.96;100.00;98551.97;5283824;28;20594;-70
2022/11/17 09:20:38;;;;;;;3.58;0.80;;;;;;;11.02;100.00;98553.00;5289430;28;20073;-70
2022/11/17 09:23:09;;;;;;;6.53;1.58;;;;;;;10.99;100.00;98558.66;5279960;28;20034;-71
2022/11/17 09:25:40;;;;;;;3.97;0.90;;;;;;;10.96;100.00;98556.41;5288609;28;20461;-70
2022/11/17 09:28:11;;;;;;;3.20;0.70;;;;;;;10.98;100.00;98561.44;5266147;28;20443;-70
2022/11/17 09:30:43;;;;;;;2.55;1.02;;;;;;;10.96;100.00;98557.22;5280248;28;20028;-70
2022/11/17 09:33:14;;;;;;;3.63;0.93;;;;;;;11.05;100.00;98557.06;5284556;28;20044;-71
2022/11/17 09:35:45;;;;;;;3.58;0.85;;;;;;;11.07;100.00;98560.31;5284144;28;20020;-70
2022/11/17 09:38:16;;;;;;;4.47;1.15;;;;;;;11.07;100.00;98563.75;5288771;28;20049;-71
2022/11/17 09:40:48;;;;;;;3.15;0.98;;;;;;;11.13;100.00;98581.31;5281011;28;20019;-71
2022/11/17 09:43:29;;;;;;;3.97;0.70;;;;;;;11.24;100.00;98571.31;5284156;28;20035;-70
2022/11/17 09:46:15;;;;;;;3.88;0.80;;;;;;;11.30;100.00;98579.25;5283130;28;20035;-71
2022/11/17 09:48:54;;;;;;;3.30;0.85;;;;;;;11.28;100.00;98580.44;5288845;28;20487;-70
2022/11/17 09:51:30;;;;;;;3.75;0.80;;;;;;;11.29;100.00;98588.13;5291305;28;20051;-70
2022/11/17 09:54:32;;;;;;;5.80;1.00;;;;;;;11.52;100.00;98587.09;5277557;28;20043;-71
2022/11/17 09:57:04;;;;;;;6.15;1.55;;;;;;;11.31;100.00;98593.97;5283077;28;20369;-72
2022/11/17 09:59:36;;;;;;;3.42;1.00;;;;;;;11.27;100.00;98589.31;5286661;28;20020;-71
2022/11/17 10:02:10;;;;;;;7.95;1.02;;;;;;;11.40;100.00;98592.84;5282750;28;20032;-72
2022/11/17 10:04:41;;;;;;;4.78;0.80;;;;;;;11.38;100.00;98600.06;5277466;28;20047;-72
2022/11/17 10:07:13;;;;;;;3.65;0.70;;;;;;;11.42;100.00;98608.38;5281405;28;20028;-71
2022/11/17 10:09:44;;;;;;;3.25;1.10;;;;;;;11.48;100.00;98609.41;5284796;28;20023;-70
2022/11/17 10:12:22;;;;;;;4.03;0.70;;;;;;;11.54;100.00;98608.66;5282313;28;20454;-71
2022/11/17 10:14:54;;;;;;;4.40;1.05;;;;;;;11.52;100.00;98616.72;5284759;28;20024;-71
2022/11/17 10:17:25;;;;;;;3.50;1.05;;;;;;;11.56;100.00;98614.53;5283289;28;20032;-71
2022/11/17 10:19:57;;;;;;;3.08;0.73;;;;;;;11.64;100.00;98620.44;5287195;28;20028;-70
2022/11/17 10:22:34;;;;;;;4.68;0.88;;;;;;;11.80;100.00;98616.72;5280730;28;20103;-71
2022/11/17 10:25:35;;;;;;;4.65;1.05;;;;;;;11.87;100.00;98614.16;5290080;28;20039;-70
2022/11/17 10:28:21;;;;;;;3.65;1.15;;;;;;;11.81;100.00;98631.44;5285354;28;20029;-70
2022/11/17 10:31:01;;;;;;;3.08;0.80;;;;;;;11.88;100.00;98619.19;5287239;28;20028;-70
2022/11/17 10:33:36;;;;;;;3.33;0.65;;;;;;;11.91;100.00;98628.50;5289974;28;20085;-71
2022/11/17 10:36:27;;;;;;;4.05;0.70;;;;;;;12.05;100.00;98634.66;5289579;28;20048;-71
2022/11/17 10:38:59;;;;;;;3.65;1.17;;;;;;;12.01;100.00;98636.03;5292068;28;20033;-70
2022/11/17 10:41:41;;;;;;;4.43;0.90;;;;;;;12.09;100.00;98636.69;5288848;28;20032;-70
2022/11/17 10:44:21;;;;;;;3.88;0.95;;;;;;;12.15;100.00;98641.16;5289322;28;20130;-71
2022/11/17 10:47:00;;;;;;;4.05;0.90;;;;;;;12.11;100.00;98650.41;5294051;28;20047;-70
2022/11/17 10:49:34;;;;;;;2.33;0.68;;;;;;;12.05;100.00;98650.41;5288551;28;20020;-70
2022/11/17 10:52:08;;;;;;;;;;;;;;;12.61;100.00;98650.22;5294773;28;20384;-70
2022/11/17 10:54:40;;;;;;;3.03;0.80;;;;;;;12.08;100.00;98652.63;5286695;28;19912;-70
2022/11/17 10:57:19;;;;;;;6.15;1.98;;;;;;;12.14;100.00;98657.91;5278839;28;20074;-70
2022/11/17 10:59:53;;;;;;;5.45;1.00;;;;;;;12.08;100.00;98653.44;5285613;28;20032;-72
2022/11/17 11:02:34;;;;;;;4.15;0.80;;;;;;;12.09;100.00;98654.25;5286741;28;20032;-70
2022/11/17 11:05:09;;;;;;;3.85;0.77;;;;;;;12.06;100.00;98659.88;5285211;28;20024;-70
2022/11/17 11:07:41;;;;;;;4.93;1.05;;;;;;;12.02;100.00;98651.59;5287098;28;20028;-70
2022/11/17 11:10:33;;;;;;;3.17;0.88;;;;;;;12.18;100.00;98667.03;5289759;28;20077;-70
2022/11/17 11:13:15;;;;;;;3.05;0.90;;;;;;;12.04;100.00;98664.50;5288915;28;20067;-70
2022/11/17 11:15:46;;;;;;;2.40;0.93;;;;;;;12.01;100.00;98670.97;5286114;28;20480;-71
2022/11/17 11:18:19;;;;;;;3.50;0.85;;;;;;;12.04;100.00;98675.00;5282378;28;20035;-70
2022/11/17 11:21:06;;;;;;;3.47;1.00;;;;;;;12.13;100.00;98668.63;5283720;28;20495;-71
2022/11/17 11:23:49;;;;;;;4.50;1.10;;;;;;;12.13;100.00;98674.66;5283452;28;20475;-71
2022/11/17 11:27:00;;;;;;;4.40;1.13;;;;;;;12.17;100.00;98673.28;5284302;28;20032;-70
2022/11/17 11:30:00;;;;;;;4.10;0.90;;;;;;;12.17;100.00;98677.72;5285292;28;20036;-71
2022/11/17 11:32:43;;;;;;;5.35;1.05;;;;;;;12.12;100.00;98682.72;5283072;28;20036;-70
2022/11/17 11:35:30;;;;;;;3.10;1.00;;;;;;;12.00;100.00;98690.31;5285422;28;20500;-71
2022/11/17 11:38:13;;;;;;;3.35;1.30;;;;;;;12.21;100.00;98693.91;5287137;28;20485;-70
2022/11/17 11:41:03;;;;;;;4.18;1.10;;;;;;;12.07;100.00;98701.69;5285350;28;20035;-71
2022/11/17 11:44:04;;;;;;;3.42;1.45;;;;;;;12.21;100.00;98699.16;5284886;28;20036;-71
2022/11/17 11:46:54;;;;;;;4.85;1.92;;;;;;;12.16;100.00;98705.78;5254581;28;20040;-70
2022/11/17 11:49:38;;;;;;;2.95;1.38;;;;;;;12.03;100.00;98702.25;5287827;28;20115;-70
2022/11/17 11:52:17;;;;;;;6.70;1.02;;;;;;;12.04;100.00;98711.75;5288211;28;20035;-71
2022/11/17 11:54:59;;;;;;;3.10;0.80;;;;;;;12.16;100.00;98694.50;5292731;28;20593;-71
2022/11/17 11:57:48;;;;;;;3.47;0.63;;;;;;;12.13;100.00;98703.53;5287723;28;20038;-71
2022/11/17 12:00:20;;;;;;;2.58;0.80;;;;;;;12.11;100.00;98709.97;5287860;28;20422;-71
2022/11/17 12:03:04;;;;;;;3.33;0.93;;;;;;;12.09;100.00;98698.88;5293880;28;20028;-71
2022/11/17 12:06:38;;;;;;;3.00;0.80;;;;;;;12.07;100.00;98722.69;5287211;28;20024;-71
2022/11/17 12:09:10;;;;;;;3.03;0.70;;;;;;;12.17;100.00;98707.41;5290486;28;20028;-71
2022/11/17 12:12:00;;;;;;;2.42;0.75;;;;;;;12.04;100.00;98707.31;5287835;28;20448;-70
2022/11/17 12:14:34;;;;;;;3.90;0.80;;;;;;;12.08;100.00;98708.53;5287106;28;20031;-70
2022/11/17 12:17:11;;;;;;;5.15;0.98;;;;;;;12.20;100.00;98713.25;5290085;28;20030;-71
2022/11/17 12:19:56;;;;;;;2.95;0.70;;;;;;;12.21;100.00;98712.28;5270227;28;20029;-71
2022/11/17 12:22:33;;;;;;;3.28;0.80;;;;;;;12.13;100.00;98721.91;5289134;28;20065;-70
2022/11/17 12:25:27;;;;;;;4.95;1.30;;;;;;;12.30;100.00;98721.59;5285408;28;20099;-71
2022/11/17 12:28:17;;;;;;;;;;;;;;;12.61;100.00;98727.25;5290128;28;20028;-71
2022/11/17 12:30:51;;;;;;;3.53;0.90;;;;;;;12.20;100.00;98726.38;5285029;28;19916;-71
2022/11/17 12:33:23;;;;;;;2.70;1.05;;;;;;;12.15;100.00;98730.41;5287102;28;20040;-72